sensor_id;sensor_type;location;lat;lon;timestamp;pressure;altitude;pressure_sealevel;temperature;humidity
51249;BME280;39642;47.556;18.728;2024-02-04T00:01:57;99990.50;;;21.35;31.08
51249;BME280;39642;47.556;18.728;2024-02-04T00:04:23;99988.72;;;21.35;31.12
51249;BME280;39642;47.556;18.728;2024-02-04T00:06:49;99987.00;;;21.34;31.10
51249;BME280;39642;47.556;18.728;2024-02-04T00:09:15;99995.81;;;21.35;31.08
51249;BME280;39642;47.556;18.728;2024-02-04T00:11:41;99995.81;;;21.35;31.08
51249;BME280;39642;47.556;18.728;2024-02-04T00:14:07;99989.62;;;21.34;31.08
51249;BME280;39642;47.556;18.728;2024-02-04T00:16:33;99993.16;;;21.35;31.07
51249;BME280;39642;47.556;18.728;2024-02-04T00:18:59;99988.78;;;21.34;31.12
51249;BME280;39642;47.556;18.728;2024-02-04T00:21:25;99981.69;;;21.34;31.08
51249;BME280;39642;47.556;18.728;2024-02-04T00:23:50;99977.34;;;21.33;31.09
51249;BME280;39642;47.556;18.728;2024-02-04T00:26:16;99985.31;;;21.33;31.07
51249;BME280;39642;47.556;18.728;2024-02-04T00:28:42;99974.78;;;21.32;31.07
51249;BME280;39642;47.556;18.728;2024-02-04T00:31:08;99977.44;;;21.32;31.08
51249;BME280;39642;47.556;18.728;2024-02-04T00:33:34;99973.00;;;21.32;31.08
51249;BME280;39642;47.556;18.728;2024-02-04T00:36:00;99970.44;;;21.31;31.09
51249;BME280;39642;47.556;18.728;2024-02-04T00:38:26;99966.00;;;21.31;31.10
51249;BME280;39642;47.556;18.728;2024-02-04T00:40:52;99976.59;;;21.31;31.10
51249;BME280;39642;47.556;18.728;2024-02-04T00:43:20;99971.37;;;21.30;31.09
51249;BME280;39642;47.556;18.728;2024-02-04T00:45:46;99982.84;;;21.30;31.07
51249;BME280;39642;47.556;18.728;2024-02-04T00:48:12;99981.13;;;21.29;31.10
51249;BME280;39642;47.556;18.728;2024-02-04T00:50:38;99986.50;;;21.28;31.11
51249;BME280;39642;47.556;18.728;2024-02-04T00:53:03;99985.56;;;21.29;31.18
51249;BME280;39642;47.556;18.728;2024-02-04T00:55:29;99982.91;;;21.29;31.17
51249;BME280;39642;47.556;18.728;2024-02-04T00:57:55;99985.50;;;21.30;31.31
51249;BME280;39642;47.556;18.728;2024-02-04T01:00:24;99977.44;;;21.32;31.29
51249;BME280;39642;47.556;18.728;2024-02-04T01:02:50;99975.53;;;21.34;31.23
51249;BME280;39642;47.556;18.728;2024-02-04T01:05:16;99971.97;;;21.35;31.17
51249;BME280;39642;47.556;18.728;2024-02-04T01:07:41;99969.22;;;21.36;31.08
51249;BME280;39642;47.556;18.728;2024-02-04T01:10:08;99962.16;;;21.37;31.13
51249;BME280;39642;47.556;18.728;2024-02-04T01:12:34;99969.13;;;21.38;31.23
51249;BME280;39642;47.556;18.728;2024-02-04T01:15:00;99951.44;;;21.38;31.11
51249;BME280;39642;47.556;18.728;2024-02-04T01:17:26;99948.72;;;21.40;31.01
51249;BME280;39642;47.556;18.728;2024-02-04T01:19:52;99946.84;;;21.42;31.09
51249;BME280;39642;47.556;18.728;2024-02-04T01:22:18;99938.91;;;21.42;31.11
51249;BME280;39642;47.556;18.728;2024-02-04T01:24:44;99939.84;;;21.41;31.16
51249;BME280;39642;47.556;18.728;2024-02-04T01:27:10;99938.91;;;21.42;31.01
51249;BME280;39642;47.556;18.728;2024-02-04T01:29:36;99936.25;;;21.42;31.10
51249;BME280;39642;47.556;18.728;2024-02-04T01:32:02;99943.25;;;21.43;31.09
51249;BME280;39642;47.556;18.728;2024-02-04T01:34:27;99945.13;;;21.41;31.23
51249;BME280;39642;47.556;18.728;2024-02-04T01:36:53;99938.06;;;21.41;31.11
51249;BME280;39642;47.556;18.728;2024-02-04T01:39:19;99931.87;;;21.41;31.16
51249;BME280;39642;47.556;18.728;2024-02-04T01:41:45;99927.47;;;21.41;31.05
51249;BME280;39642;47.556;18.728;2024-02-04T01:44:11;99931.87;;;21.41;31.11
51249;BME280;39642;47.556;18.728;2024-02-04T01:46:37;99930.97;;;21.42;31.13
51249;BME280;39642;47.556;18.728;2024-02-04T01:49:03;99916.87;;;21.41;31.15
51249;BME280;39642;47.556;18.728;2024-02-04T01:51:29;99917.72;;;21.42;31.15
51249;BME280;39642;47.556;18.728;2024-02-04T01:53:54;99923.94;;;21.41;31.06
51249;BME280;39642;47.556;18.728;2024-02-04T01:56:21;99934.53;;;21.41;31.05
51249;BME280;39642;47.556;18.728;2024-02-04T01:58:47;99916.00;;;21.41;31.04
51249;BME280;39642;47.556;18.728;2024-02-04T02:01:14;99923.09;;;21.40;31.11
51249;BME280;39642;47.556;18.728;2024-02-04T02:03:41;99921.38;;;21.39;31.04
51249;BME280;39642;47.556;18.728;2024-02-04T02:06:07;99901.03;;;21.40;31.08
51249;BME280;39642;47.556;18.728;2024-02-04T02:08:33;99907.19;;;21.40;31.23
51249;BME280;39642;47.556;18.728;2024-02-04T02:11:05;99901.03;;;21.40;31.03
51249;BME280;39642;47.556;18.728;2024-02-04T02:13:34;99889.50;;;21.41;31.09
51249;BME280;39642;47.556;18.728;2024-02-04T02:16:13;99892.16;;;21.41;31.08
51249;BME280;39642;47.556;18.728;2024-02-04T02:18:49;99901.81;;;21.42;31.07
51249;BME280;39642;47.556;18.728;2024-02-04T02:26:50;99877.97;;;21.42;31.13
51249;BME280;39642;47.556;18.728;2024-02-04T02:29:16;99890.25;;;21.43;31.06
51249;BME280;39642;47.556;18.728;2024-02-04T02:31:42;99879.66;;;21.43;30.95
51249;BME280;39642;47.556;18.728;2024-02-04T02:34:09;99884.97;;;21.43;31.04
51249;BME280;39642;47.556;18.728;2024-02-04T02:36:50;99895.56;;;21.43;31.08
51249;BME280;39642;47.556;18.728;2024-02-04T02:39:23;99882.31;;;21.43;31.12
51249;BME280;39642;47.556;18.728;2024-02-04T02:41:50;99878.81;;;21.42;31.14
51249;BME280;39642;47.556;18.728;2024-02-04T02:44:23;99890.25;;;21.43;31.08
51249;BME280;39642;47.556;18.728;2024-02-04T02:46:51;99900.84;;;21.43;30.96
51249;BME280;39642;47.556;18.728;2024-02-04T02:49:16;99899.16;;;21.42;30.97
51249;BME280;39642;47.556;18.728;2024-02-04T02:51:43;99898.38;;;21.40;31.00
51249;BME280;39642;47.556;18.728;2024-02-04T02:54:08;99899.31;;;21.39;31.01
51249;BME280;39642;47.556;18.728;2024-02-04T02:56:35;99879.16;;;21.36;31.04
51249;BME280;39642;47.556;18.728;2024-02-04T02:59:01;99886.34;;;21.34;31.08
51249;BME280;39642;47.556;18.728;2024-02-04T03:01:27;99876.78;;;21.32;31.11
51249;BME280;39642;47.556;18.728;2024-02-04T03:03:52;99865.25;;;21.33;31.09
51249;BME280;39642;47.556;18.728;2024-02-04T03:06:18;99867.16;;;21.31;31.14
51249;BME280;39642;47.556;18.728;2024-02-04T03:08:44;99867.22;;;21.29;31.15
51249;BME280;39642;47.556;18.728;2024-02-04T03:11:10;99876.97;;;21.29;31.20
51249;BME280;39642;47.556;18.728;2024-02-04T03:13:38;99888.63;;;21.26;31.23
51249;BME280;39642;47.556;18.728;2024-02-04T03:16:10;99891.28;;;21.26;31.24
51249;BME280;39642;47.556;18.728;2024-02-04T03:18:39;99892.09;;;21.27;31.24
51249;BME280;39642;47.556;18.728;2024-02-04T03:21:14;99908.09;;;21.25;31.25
51249;BME280;39642;47.556;18.728;2024-02-04T03:23:43;99903.53;;;21.27;31.25
51249;BME280;39642;47.556;18.728;2024-02-04T03:26:10;99902.78;;;21.25;31.26
51249;BME280;39642;47.556;18.728;2024-02-04T03:28:36;99902.78;;;21.25;31.26
51249;BME280;39642;47.556;18.728;2024-02-04T03:31:03;99902.78;;;21.25;31.31
51249;BME280;39642;47.556;18.728;2024-02-04T03:33:29;99894.75;;;21.27;31.33
51249;BME280;39642;47.556;18.728;2024-02-04T03:35:54;99908.75;;;21.29;31.24
51249;BME280;39642;47.556;18.728;2024-02-04T03:38:20;99913.09;;;21.30;31.24
51249;BME280;39642;47.556;18.728;2024-02-04T03:40:47;99914.91;;;21.29;31.21
51249;BME280;39642;47.556;18.728;2024-02-04T03:43:15;99923.81;;;21.28;31.26
51249;BME280;39642;47.556;18.728;2024-02-04T03:45:41;99930.88;;;21.28;31.38
51249;BME280;39642;47.556;18.728;2024-02-04T03:48:07;99942.22;;;21.30;31.30
51249;BME280;39642;47.556;18.728;2024-02-04T03:50:33;99947.53;;;21.30;31.22
51249;BME280;39642;47.556;18.728;2024-02-04T03:52:58;99922.09;;;21.27;31.30
51249;BME280;39642;47.556;18.728;2024-02-04T03:55:24;99941.47;;;21.28;31.37
51249;BME280;39642;47.556;18.728;2024-02-04T03:57:51;99939.69;;;21.28;31.30
51249;BME280;39642;47.556;18.728;2024-02-04T04:00:17;99939.69;;;21.28;31.28
51249;BME280;39642;47.556;18.728;2024-02-04T04:02:43;99947.66;;;21.28;31.31
51249;BME280;39642;47.556;18.728;2024-02-04T04:05:12;99935.16;;;21.30;31.38
51249;BME280;39642;47.556;18.728;2024-02-04T04:07:39;99947.44;;;21.31;31.25
51249;BME280;39642;47.556;18.728;2024-02-04T04:10:06;99945.66;;;21.32;31.30
51249;BME280;39642;47.556;18.728;2024-02-04T04:12:32;99952.66;;;21.33;31.25
51249;BME280;39642;47.556;18.728;2024-02-04T04:14:58;99951.81;;;21.32;31.23
51249;BME280;39642;47.556;18.728;2024-02-04T04:17:24;99948.31;;;21.32;31.21
51249;BME280;39642;47.556;18.728;2024-02-04T04:19:50;99940.28;;;21.33;31.21
51249;BME280;39642;47.556;18.728;2024-02-04T04:22:16;99942.06;;;21.33;31.21
51249;BME280;39642;47.556;18.728;2024-02-04T04:24:41;99929.75;;;21.32;31.23
51249;BME280;39642;47.556;18.728;2024-02-04T04:27:07;99924.37;;;21.33;31.33
51249;BME280;39642;47.556;18.728;2024-02-04T04:29:34;99934.97;;;21.33;31.28
51249;BME280;39642;47.556;18.728;2024-02-04T04:32:00;99934.13;;;21.33;31.30
51249;BME280;39642;47.556;18.728;2024-02-04T04:34:26;99938.47;;;21.34;31.25
51249;BME280;39642;47.556;18.728;2024-02-04T04:36:51;99943.75;;;21.34;31.29
51249;BME280;39642;47.556;18.728;2024-02-04T04:39:17;99936.78;;;21.33;31.40
51249;BME280;39642;47.556;18.728;2024-02-04T04:41:44;99934.00;;;21.34;31.22
51249;BME280;39642;47.556;18.728;2024-02-04T04:44:10;99930.53;;;21.34;31.22
51249;BME280;39642;47.556;18.728;2024-02-04T04:46:39;99934.13;;;21.33;31.21
51249;BME280;39642;47.556;18.728;2024-02-04T04:49:05;99945.66;;;21.32;31.26
51249;BME280;39642;47.556;18.728;2024-02-04T04:51:31;99939.50;;;21.31;31.24
51249;BME280;39642;47.556;18.728;2024-02-04T04:53:58;99931.56;;;21.31;31.27
51249;BME280;39642;47.556;18.728;2024-02-04T04:56:23;99923.69;;;21.30;31.27
51249;BME280;39642;47.556;18.728;2024-02-04T04:58:49;99926.34;;;21.30;31.30
51249;BME280;39642;47.556;18.728;2024-02-04T05:01:16;99926.34;;;21.30;31.29
51249;BME280;39642;47.556;18.728;2024-02-04T05:03:42;99929.09;;;21.28;31.31
51249;BME280;39642;47.556;18.728;2024-02-04T05:06:08;99920.28;;;21.28;31.29
51249;BME280;39642;47.556;18.728;2024-02-04T05:08:34;99917.63;;;21.28;31.30
51249;BME280;39642;47.556;18.728;2024-02-04T05:11:00;99926.53;;;21.27;31.31
51249;BME280;39642;47.556;18.728;2024-02-04T05:13:26;99927.59;;;21.24;31.39
51249;BME280;39642;47.556;18.728;2024-02-04T05:15:51;99922.28;;;21.24;31.38
51249;BME280;39642;47.556;18.728;2024-02-04T05:18:18;99923.13;;;21.25;31.41
51249;BME280;39642;47.556;18.728;2024-02-04T05:20:43;99929.38;;;21.24;31.41
51249;BME280;39642;47.556;18.728;2024-02-04T05:23:09;99920.47;;;21.25;31.40
51249;BME280;39642;47.556;18.728;2024-02-04T05:25:35;99908.97;;;21.26;31.38
51249;BME280;39642;47.556;18.728;2024-02-04T05:28:01;99903.66;;;21.26;31.34
51249;BME280;39642;47.556;18.728;2024-02-04T05:30:27;99906.41;;;21.24;31.34
51249;BME280;39642;47.556;18.728;2024-02-04T05:32:53;99906.47;;;21.23;31.39
51249;BME280;39642;47.556;18.728;2024-02-04T05:35:19;99902.97;;;21.22;31.39
51249;BME280;39642;47.556;18.728;2024-02-04T05:37:45;99910.06;;;21.21;31.41
51249;BME280;39642;47.556;18.728;2024-02-04T05:40:11;99912.72;;;21.21;31.39
51249;BME280;39642;47.556;18.728;2024-02-04T05:42:38;99910.25;;;21.18;31.40
51249;BME280;39642;47.556;18.728;2024-02-04T05:45:04;99907.59;;;21.18;31.50
51249;BME280;39642;47.556;18.728;2024-02-04T05:47:33;99914.63;;;21.19;31.49
51249;BME280;39642;47.556;18.728;2024-02-04T05:49:59;99904.03;;;21.19;31.46
51249;BME280;39642;47.556;18.728;2024-02-04T05:52:25;99915.47;;;21.20;31.51
51249;BME280;39642;47.556;18.728;2024-02-04T05:54:51;99921.59;;;21.20;31.51
51249;BME280;39642;47.556;18.728;2024-02-04T05:57:16;99917.19;;;21.21;31.47
51249;BME280;39642;47.556;18.728;2024-02-04T05:59:42;99925.97;;;21.21;31.45
51249;BME280;39642;47.556;18.728;2024-02-04T06:02:09;99920.69;;;21.21;31.43
51249;BME280;39642;47.556;18.728;2024-02-04T06:04:35;99928.50;;;21.23;31.42
51249;BME280;39642;47.556;18.728;2024-02-04T06:07:02;99924.16;;;21.22;31.43
51249;BME280;39642;47.556;18.728;2024-02-04T06:09:28;99940.06;;;21.22;31.43
51249;BME280;39642;47.556;18.728;2024-02-04T06:11:54;99947.03;;;21.23;31.45
51249;BME280;39642;47.556;18.728;2024-02-04T06:14:19;99954.13;;;21.23;31.47
51249;BME280;39642;47.556;18.728;2024-02-04T06:16:45;99944.41;;;21.23;31.45
51249;BME280;39642;47.556;18.728;2024-02-04T06:19:11;99945.34;;;21.22;31.45
51249;BME280;39642;47.556;18.728;2024-02-04T06:21:38;99953.38;;;21.20;31.50
51249;BME280;39642;47.556;18.728;2024-02-04T06:24:04;99953.28;;;21.22;31.54
51249;BME280;39642;47.556;18.728;2024-02-04T06:26:30;99955.00;;;21.23;31.52
51249;BME280;39642;47.556;18.728;2024-02-04T06:28:56;99962.94;;;21.23;31.49
51249;BME280;39642;47.556;18.728;2024-02-04T06:31:22;99964.66;;;21.24;31.49
51249;BME280;39642;47.556;18.728;2024-02-04T06:33:48;99953.22;;;21.24;31.55
51249;BME280;39642;47.556;18.728;2024-02-04T06:36:14;99952.25;;;21.25;31.54
51249;BME280;39642;47.556;18.728;2024-02-04T06:38:40;99961.81;;;21.27;31.48
51249;BME280;39642;47.556;18.728;2024-02-04T06:41:05;99953.03;;;21.27;31.48
51249;BME280;39642;47.556;18.728;2024-02-04T06:43:32;99948.69;;;21.26;31.47
51249;BME280;39642;47.556;18.728;2024-02-04T06:45:58;99947.81;;;21.25;31.46
51249;BME280;39642;47.556;18.728;2024-02-04T06:48:24;99954.06;;;21.24;31.49
51249;BME280;39642;47.556;18.728;2024-02-04T06:50:50;99958.50;;;21.24;31.54
51249;BME280;39642;47.556;18.728;2024-02-04T06:53:15;99952.44;;;21.21;31.69
51249;BME280;39642;47.556;18.728;2024-02-04T06:55:41;99956.78;;;21.23;31.61
51249;BME280;39642;47.556;18.728;2024-02-04T06:58:07;99956.78;;;21.23;31.57
51249;BME280;39642;47.556;18.728;2024-02-04T07:00:33;99947.03;;;21.23;31.55
51249;BME280;39642;47.556;18.728;2024-02-04T07:02:59;99949.69;;;21.23;31.55
51249;BME280;39642;47.556;18.728;2024-02-04T07:05:25;99953.22;;;21.24;31.58
51249;BME280;39642;47.556;18.728;2024-02-04T07:07:51;99956.78;;;21.23;31.60
51249;BME280;39642;47.556;18.728;2024-02-04T07:10:17;99965.50;;;21.25;31.63
51249;BME280;39642;47.556;18.728;2024-02-04T07:12:43;99964.56;;;21.26;31.65
51249;BME280;39642;47.556;18.728;2024-02-04T07:15:09;99959.16;;;21.27;31.61
51249;BME280;39642;47.556;18.728;2024-02-04T07:17:35;99959.09;;;21.29;31.58
51249;BME280;39642;47.556;18.728;2024-02-04T07:20:01;99952.06;;;21.28;31.59
51249;BME280;39642;47.556;18.728;2024-02-04T07:22:28;99951.12;;;21.29;31.58
51249;BME280;39642;47.556;18.728;2024-02-04T07:24:54;99955.47;;;21.30;31.61
51249;BME280;39642;47.556;18.728;2024-02-04T07:27:20;99957.19;;;21.31;31.60
51249;BME280;39642;47.556;18.728;2024-02-04T07:29:46;99953.59;;;21.32;31.57
51249;BME280;39642;47.556;18.728;2024-02-04T07:32:13;99951.06;;;21.30;31.59
51249;BME280;39642;47.556;18.728;2024-02-04T07:34:40;99955.41;;;21.31;31.60
51249;BME280;39642;47.556;18.728;2024-02-04T07:37:07;99966.84;;;21.32;31.63
51249;BME280;39642;47.556;18.728;2024-02-04T07:39:32;99979.16;;;21.33;31.59
51249;BME280;39642;47.556;18.728;2024-02-04T07:41:58;99971.22;;;21.33;31.62
51249;BME280;39642;47.556;18.728;2024-02-04T07:44:28;99975.53;;;21.34;31.62
51249;BME280;39642;47.556;18.728;2024-02-04T07:46:54;99982.72;;;21.32;31.65
51249;BME280;39642;47.556;18.728;2024-02-04T07:49:20;99979.16;;;21.33;31.70
51249;BME280;39642;47.556;18.728;2024-02-04T07:51:46;99976.50;;;21.33;31.61
51249;BME280;39642;47.556;18.728;2024-02-04T07:54:12;99982.66;;;21.33;31.71
51249;BME280;39642;47.556;18.728;2024-02-04T07:56:38;99977.34;;;21.33;31.63
51249;BME280;39642;47.556;18.728;2024-02-04T07:59:04;99979.25;;;21.31;31.61
51249;BME280;39642;47.556;18.728;2024-02-04T08:01:30;99969.50;;;21.32;31.70
51249;BME280;39642;47.556;18.728;2024-02-04T08:03:56;99969.50;;;21.32;31.79
51249;BME280;39642;47.556;18.728;2024-02-04T08:06:22;99973.84;;;21.33;31.70
51249;BME280;39642;47.556;18.728;2024-02-04T08:08:48;99979.03;;;21.34;31.70
51249;BME280;39642;47.556;18.728;2024-02-04T08:11:17;99979.03;;;21.34;31.73
51249;BME280;39642;47.556;18.728;2024-02-04T08:13:43;99950.78;;;21.35;31.90
51249;BME280;39642;47.556;18.728;2024-02-04T08:16:10;99963.16;;;21.34;32.02
51249;BME280;39642;47.556;18.728;2024-02-04T08:18:36;99964.78;;;21.37;32.25
51249;BME280;39642;47.556;18.728;2024-02-04T08:21:02;99948.03;;;21.36;32.43
51249;BME280;39642;47.556;18.728;2024-02-04T08:23:29;99947.94;;;21.38;32.21
51249;BME280;39642;47.556;18.728;2024-02-04T08:25:55;99948.72;;;21.40;32.19
51249;BME280;39642;47.556;18.728;2024-02-04T08:28:22;99953.00;;;21.42;32.12
51249;BME280;39642;47.556;18.728;2024-02-04T08:30:49;99968.81;;;21.44;32.15
51249;BME280;39642;47.556;18.728;2024-02-04T08:33:15;99958.09;;;21.46;32.10
51249;BME280;39642;47.556;18.728;2024-02-04T08:35:41;99952.81;;;21.46;32.52
51249;BME280;39642;47.556;18.728;2024-02-04T08:38:07;99963.50;;;21.44;32.30
51249;BME280;39642;47.556;18.728;2024-02-04T08:40:33;99959.91;;;21.45;32.67
51249;BME280;39642;47.556;18.728;2024-02-04T08:42:58;99951.97;;;21.45;32.62
51249;BME280;39642;47.556;18.728;2024-02-04T08:45:24;99949.31;;;21.45;32.80
51249;BME280;39642;47.556;18.728;2024-02-04T08:47:50;99952.72;;;21.47;33.20
51249;BME280;39642;47.556;18.728;2024-02-04T08:50:16;99959.75;;;21.48;33.13
51249;BME280;39642;47.556;18.728;2024-02-04T08:52:42;99957.94;;;21.49;33.76
51249;BME280;39642;47.556;18.728;2024-02-04T08:55:08;99956.22;;;21.48;33.49
51249;BME280;39642;47.556;18.728;2024-02-04T08:57:34;99956.22;;;21.48;33.66
51249;BME280;39642;47.556;18.728;2024-02-04T09:00:00;99956.22;;;21.48;34.27
51249;BME280;39642;47.556;18.728;2024-02-04T09:02:26;99947.22;;;21.50;34.68
51249;BME280;39642;47.556;18.728;2024-02-04T09:04:52;99927.84;;;21.50;34.79
51249;BME280;39642;47.556;18.728;2024-02-04T09:07:18;99923.50;;;21.49;35.15
51249;BME280;39642;47.556;18.728;2024-02-04T09:09:44;99920.72;;;21.50;35.22
51249;BME280;39642;47.556;18.728;2024-02-04T09:12:10;99925.09;;;21.51;35.15
51249;BME280;39642;47.556;18.728;2024-02-04T09:14:36;99926.78;;;21.52;35.35
51249;BME280;39642;47.556;18.728;2024-02-04T09:17:03;99925.87;;;21.53;35.51
51249;BME280;39642;47.556;18.728;2024-02-04T09:19:29;99930.22;;;21.54;35.67
51249;BME280;39642;47.556;18.728;2024-02-04T09:21:56;99916.87;;;21.56;35.87
51249;BME280;39642;47.556;18.728;2024-02-04T09:24:22;99933.72;;;21.55;36.26
51249;BME280;39642;47.556;18.728;2024-02-04T09:26:48;99933.63;;;21.56;36.39
51249;BME280;39642;47.556;18.728;2024-02-04T09:29:14;99931.94;;;21.55;36.36
51249;BME280;39642;47.556;18.728;2024-02-04T09:31:40;99946.97;;;21.55;36.35
51249;BME280;39642;47.556;18.728;2024-02-04T09:34:06;99950.47;;;21.55;36.69
51249;BME280;39642;47.556;18.728;2024-02-04T09:36:32;99962.87;;;21.55;36.61
51249;BME280;39642;47.556;18.728;2024-02-04T09:38:57;99961.06;;;21.55;36.67
51249;BME280;39642;47.556;18.728;2024-02-04T09:41:23;99955.66;;;21.57;36.61
51249;BME280;39642;47.556;18.728;2024-02-04T09:43:50;99960.97;;;21.57;37.07
51249;BME280;39642;47.556;18.728;2024-02-04T09:46:17;99956.53;;;21.57;37.16
51249;BME280;39642;47.556;18.728;2024-02-04T09:48:44;99966.25;;;21.57;37.00
51249;BME280;39642;47.556;18.728;2024-02-04T09:51:11;99965.31;;;21.58;36.63
51249;BME280;39642;47.556;18.728;2024-02-04T09:53:43;99962.59;;;21.59;36.54
51249;BME280;39642;47.556;18.728;2024-02-04T09:56:09;99957.28;;;21.59;36.77
51249;BME280;39642;47.556;18.728;2024-02-04T09:58:37;99947.53;;;21.60;36.78
51249;BME280;39642;47.556;18.728;2024-02-04T10:01:06;99942.25;;;21.60;36.75
51249;BME280;39642;47.556;18.728;2024-02-04T10:03:34;99936.09;;;21.59;36.90
51249;BME280;39642;47.556;18.728;2024-02-04T10:06:00;99932.50;;;21.60;37.04
51249;BME280;39642;47.556;18.728;2024-02-04T10:08:26;99936.94;;;21.60;37.14
51249;BME280;39642;47.556;18.728;2024-02-04T10:10:52;99936.94;;;21.60;37.39
51249;BME280;39642;47.556;18.728;2024-02-04T10:13:20;99929.84;;;21.60;37.42
51249;BME280;39642;47.556;18.728;2024-02-04T10:15:51;99928.03;;;21.61;37.03
51249;BME280;39642;47.556;18.728;2024-02-04T10:18:17;99923.59;;;21.61;37.06
51249;BME280;39642;47.556;18.728;2024-02-04T10:20:43;99925.37;;;21.61;36.60
51249;BME280;39642;47.556;18.728;2024-02-04T10:23:09;99928.78;;;21.63;36.76
51249;BME280;39642;47.556;18.728;2024-02-04T10:25:35;99924.53;;;21.60;36.45
51249;BME280;39642;47.556;18.728;2024-02-04T10:28:01;99913.09;;;21.60;36.44
51249;BME280;39642;47.556;18.728;2024-02-04T10:30:27;99914.78;;;21.61;36.90
51249;BME280;39642;47.556;18.728;2024-02-04T10:32:53;99906.00;;;21.60;36.62
51249;BME280;39642;47.556;18.728;2024-02-04T10:35:23;99902.37;;;21.61;36.94
51249;BME280;39642;47.556;18.728;2024-02-04T10:37:52;99900.59;;;21.62;37.31
51249;BME280;39642;47.556;18.728;2024-02-04T10:40:18;99905.03;;;21.61;37.40
51249;BME280;39642;47.556;18.728;2024-02-04T10:42:44;99903.34;;;21.60;37.48
51249;BME280;39642;47.556;18.728;2024-02-04T10:45:11;99903.34;;;21.60;37.43
51249;BME280;39642;47.556;18.728;2024-02-04T10:47:38;99904.31;;;21.59;37.25
51249;BME280;39642;47.556;18.728;2024-02-04T10:50:05;99883.00;;;21.61;37.75
51249;BME280;39642;47.556;18.728;2024-02-04T10:52:38;99881.19;;;21.61;37.85
51249;BME280;39642;47.556;18.728;2024-02-04T10:55:09;99877.69;;;21.61;37.94
51249;BME280;39642;47.556;18.728;2024-02-04T10:57:37;99876.00;;;21.60;37.83
51249;BME280;39642;47.556;18.728;2024-02-04T11:00:04;99864.56;;;21.59;37.66
51249;BME280;39642;47.556;18.728;2024-02-04T11:02:35;99866.25;;;21.60;37.72
51249;BME280;39642;47.556;18.728;2024-02-04T11:05:03;99861.78;;;21.61;37.82
51249;BME280;39642;47.556;18.728;2024-02-04T11:07:33;99861.72;;;21.62;37.82
51249;BME280;39642;47.556;18.728;2024-02-04T11:10:03;99861.72;;;21.62;37.65
51249;BME280;39642;47.556;18.728;2024-02-04T11:12:31;99862.47;;;21.65;37.83
51249;BME280;39642;47.556;18.728;2024-02-04T11:15:01;99858.97;;;21.64;38.10
51249;BME280;39642;47.556;18.728;2024-02-04T11:17:51;99862.56;;;21.63;37.98
51249;BME280;39642;47.556;18.728;2024-02-04T11:25:59;99853.75;;;21.62;37.84
51249;BME280;39642;47.556;18.728;2024-02-04T11:28:26;99844.09;;;21.61;37.33
51249;BME280;39642;47.556;18.728;2024-02-04T11:30:52;99841.44;;;21.61;37.41
51249;BME280;39642;47.556;18.728;2024-02-04T11:33:20;99838.69;;;21.63;37.54
51249;BME280;39642;47.556;18.728;2024-02-04T11:35:46;99836.06;;;21.63;37.79
51249;BME280;39642;47.556;18.728;2024-02-04T11:38:17;99831.59;;;21.63;38.03
51249;BME280;39642;47.556;18.728;2024-02-04T11:40:45;99844.00;;;21.63;37.59
51249;BME280;39642;47.556;18.728;2024-02-04T11:43:13;99825.44;;;21.63;38.08
51249;BME280;39642;47.556;18.728;2024-02-04T11:45:41;99832.56;;;21.62;38.02
51249;BME280;39642;47.556;18.728;2024-02-04T11:48:08;99826.41;;;21.62;37.58
51249;BME280;39642;47.556;18.728;2024-02-04T11:50:36;99833.50;;;21.61;37.34
51249;BME280;39642;47.556;18.728;2024-02-04T11:53:12;99830.00;;;21.61;37.03
51249;BME280;39642;47.556;18.728;2024-02-04T11:55:39;99846.66;;;21.63;36.92
51249;BME280;39642;47.556;18.728;2024-02-04T11:58:06;99849.50;;;21.60;36.52
51249;BME280;39642;47.556;18.728;2024-02-04T12:00:33;99830.19;;;21.58;36.14
51249;BME280;39642;47.556;18.728;2024-02-04T12:03:06;99826.69;;;21.57;35.80
51249;BME280;39642;47.556;18.728;2024-02-04T12:05:33;99816.19;;;21.56;35.64
51249;BME280;39642;47.556;18.728;2024-02-04T12:08:04;99821.50;;;21.56;35.49
51249;BME280;39642;47.556;18.728;2024-02-04T12:10:31;99832.94;;;21.56;35.19
51249;BME280;39642;47.556;18.728;2024-02-04T12:13:05;99825.09;;;21.55;35.05
51249;BME280;39642;47.556;18.728;2024-02-04T12:15:34;99830.41;;;21.55;34.95
51249;BME280;39642;47.556;18.728;2024-02-04T12:18:11;99830.41;;;21.55;34.86
51249;BME280;39642;47.556;18.728;2024-02-04T12:20:38;99839.28;;;21.54;34.74
51249;BME280;39642;47.556;18.728;2024-02-04T12:23:05;99842.22;;;21.49;34.40
51249;BME280;39642;47.556;18.728;2024-02-04T12:25:31;99840.53;;;21.48;34.20
51249;BME280;39642;47.556;18.728;2024-02-04T12:27:58;99838.81;;;21.47;34.49
51249;BME280;39642;47.556;18.728;2024-02-04T12:30:26;99853.00;;;21.46;34.50
51249;BME280;39642;47.556;18.728;2024-02-04T12:33:10;99859.25;;;21.45;34.06
51249;BME280;39642;47.556;18.728;2024-02-04T12:35:35;99866.25;;;21.46;34.21
51249;BME280;39642;47.556;18.728;2024-02-04T12:38:01;99846.66;;;21.49;34.20
51249;BME280;39642;47.556;18.728;2024-02-04T12:40:29;99843.25;;;21.47;33.83
51249;BME280;39642;47.556;18.728;2024-02-04T12:42:57;99862.72;;;21.46;33.71
51249;BME280;39642;47.556;18.728;2024-02-04T12:45:24;99862.72;;;21.46;33.62
51249;BME280;39642;47.556;18.728;2024-02-04T12:48:00;99853.00;;;21.46;33.68
51249;BME280;39642;47.556;18.728;2024-02-04T12:50:26;99840.69;;;21.45;33.46
51249;BME280;39642;47.556;18.728;2024-02-04T12:53:09;99841.75;;;21.42;33.65
51249;BME280;39642;47.556;18.728;2024-02-04T12:55:38;99838.16;;;21.44;33.44
51249;BME280;39642;47.556;18.728;2024-02-04T12:58:08;99840.69;;;21.45;33.46
51249;BME280;39642;47.556;18.728;2024-02-04T13:00:36;99846.00;;;21.45;33.56